Time;durP1;ratioP1;P1;durP2;ratioP2;P2;SDS_P1;SDS_P2;PMS_P1;PMS_P2;Temp;Humidity;BMP_temperature;BMP_pressure;BME280_temperature;BME280_humidity;BME280_pressure;Samples;Min_cycle;Max_cycle;Signal;HPM_P1;HPM_P2
2022/04/19 00:00:59;;;;;;;5.07;2.67;;;8.10;94.80;;;;;;4180490;28;20514;-81
2022/04/19 00:03:02;;;;;;;4.67;2.73;;;8.40;94.80;;;;;;4184079;28;20489;-80
2022/04/19 00:05:09;;;;;;;6.10;2.87;;;8.10;94.40;;;;;;4186935;28;20481;-80
2022/04/19 00:07:11;;;;;;;4.50;2.67;;;8.10;94.30;;;;;;4191406;28;20784;-80
2022/04/19 00:09:13;;;;;;;5.07;2.97;;;8.00;94.50;;;;;;4178227;28;20505;-81
2022/04/19 00:11:15;;;;;;;5.23;2.47;;;8.00;94.70;;;;;;4173141;28;20927;-81
2022/04/19 00:13:17;;;;;;;4.93;2.57;;;8.00;94.60;;;;;;4183001;28;20533;-80
2022/04/19 00:15:19;;;;;;;4.73;2.43;;;8.00;94.60;;;;;;4181504;28;20472;-80
2022/04/19 00:17:21;;;;;;;4.83;2.40;;;7.90;94.50;;;;;;4175256;28;20469;-82
2022/04/19 00:19:25;;;;;;;4.40;2.47;;;8.00;94.40;;;;;;4181228;28;20485;-81
2022/04/19 00:21:29;;;;;;;4.73;2.60;;;8.10;94.20;;;;;;4182343;28;20480;-81
2022/04/19 00:23:30;;;;;;;3.27;2.50;;;7.90;93.40;;;;;;4182734;28;20468;-81
2022/04/19 00:25:32;;;;;;;4.50;2.50;;;7.90;93.00;;;;;;4189919;28;20964;-78
2022/04/19 00:27:34;;;;;;;4.00;2.50;;;7.90;93.10;;;;;;4177090;28;20529;-81
2022/04/19 00:29:37;;;;;;;4.13;2.57;;;7.80;93.10;;;;;;4182510;28;20464;-82
2022/04/19 00:31:39;;;;;;;6.13;2.47;;;7.80;92.50;;;;;;4182152;28;20612;-81
2022/04/19 00:33:44;;;;;;;3.40;2.27;;;7.80;92.30;;;;;;4182453;28;20470;-80
2022/04/19 00:35:45;;;;;;;3.67;2.40;;;7.70;92.20;;;;;;4180379;28;20579;-80
2022/04/19 00:37:49;;;;;;;4.93;2.50;;;7.70;92.30;;;;;;4181456;28;20464;-80
2022/04/19 00:39:51;;;;;;;3.20;2.10;;;7.70;92.00;;;;;;4182908;28;20958;-80
2022/04/19 00:41:55;;;;;;;5.33;2.10;;;7.70;91.60;;;;;;4196628;28;20514;-81
2022/04/19 00:43:57;;;;;;;3.27;2.20;;;7.60;91.20;;;;;;4191850;28;20461;-82
2022/04/19 00:45:59;;;;;;;3.87;2.33;;;7.60;91.20;;;;;;4190053;28;20468;-81
2022/04/19 00:48:01;;;;;;;3.40;2.17;;;7.60;90.70;;;;;;4192012;28;20456;-81
2022/04/19 00:50:04;;;;;;;2.73;1.90;;;7.60;90.40;;;;;;4187370;28;20501;-81
2022/04/19 00:52:07;;;;;;;3.63;2.27;;;7.50;90.00;;;;;;4181150;28;21006;-81
2022/04/19 00:54:11;;;;;;;3.30;2.37;;;7.50;90.10;;;;;;4182234;28;20459;-81
2022/04/19 00:56:13;;;;;;;4.47;2.30;;;7.50;90.00;;;;;;4182465;28;20456;-82
2022/04/19 00:58:15;;;;;;;2.83;1.90;;;7.50;90.30;;;;;;4181705;28;21026;-81
2022/04/19 01:00:17;;;;;;;5.23;2.67;;;7.50;90.60;;;;;;4176939;28;20471;-81
2022/04/19 01:02:18;;;;;;;2.87;2.20;;;7.40;90.50;;;;;;4181352;28;20856;-81
2022/04/19 01:04:23;;;;;;;4.03;2.20;;;7.40;90.80;;;;;;4181400;28;20459;-81
2022/04/19 01:06:25;;;;;;;3.93;2.47;;;7.40;91.10;;;;;;4180480;28;20455;-82
2022/04/19 01:08:29;;;;;;;4.63;2.63;;;7.30;91.40;;;;;;4179522;28;20472;-81
2022/04/19 01:10:32;;;;;;;3.73;2.17;;;7.30;91.60;;;;;;4178788;28;20498;-81
2022/04/19 01:14:55;;;;;;;4.17;2.30;;;7.30;91.20;;;;;;4178900;28;20824;-79
2022/04/19 01:16:58;;;;;;;3.03;2.10;;;7.20;90.50;;;;;;4181434;28;20583;-81
2022/04/19 01:19:01;;;;;;;3.63;2.20;;;7.20;90.40;;;;;;4178586;28;20535;-82
2022/04/19 01:21:04;;;;;;;5.80;2.20;;;7.20;90.30;;;;;;4181203;28;20487;-82
2022/04/19 01:23:07;;;;;;;3.50;1.90;;;7.20;90.10;;;;;;4180850;28;20512;-82
2022/04/19 01:25:11;;;;;;;3.03;2.00;;;7.20;89.90;;;;;;4189583;28;20479;-81
2022/04/19 01:27:13;;;;;;;3.67;1.90;;;7.10;89.40;;;;;;4180001;28;20554;-82
2022/04/19 01:29:17;;;;;;;2.63;1.83;;;7.10;87.90;;;;;;4168257;28;20458;-80
2022/04/19 01:31:19;;;;;;;3.10;1.93;;;7.10;87.30;;;;;;4181733;28;20554;-82
2022/04/19 01:33:22;;;;;;;3.43;1.97;;;7.10;86.90;;;;;;4181457;28;20894;-82
2022/04/19 01:35:23;;;;;;;4.50;2.00;;;7.10;86.70;;;;;;4181392;28;20455;-81
2022/04/19 01:37:25;;;;;;;2.37;1.90;;;7.10;85.80;;;;;;4173492;28;20991;-82
2022/04/19 01:41:50;;;;;;;3.80;1.90;;;7.10;84.30;;;;;;4191441;28;20515;-82
2022/04/19 01:43:51;;;;;;;3.50;1.87;;;7.10;84.40;;;;;;4199590;28;20482;-81
2022/04/19 01:45:54;;;;;;;4.13;2.30;;;7.10;84.40;;;;;;4179212;28;20970;-82
2022/04/19 01:47:57;;;;;;;3.03;1.93;;;7.10;84.40;;;;;;4182653;28;20822;-82
2022/04/19 01:49:59;;;;;;;2.77;1.90;;;7.00;84.00;;;;;;4183218;28;20462;-82
2022/04/19 01:52:01;;;;;;;3.90;1.90;;;7.00;83.00;;;;;;4185453;28;20528;-82
2022/04/19 01:54:03;;;;;;;2.43;1.90;;;7.00;83.30;;;;;;4189974;28;21047;-81
2022/04/19 01:56:08;;;;;;;3.80;2.10;;;7.00;83.10;;;;;;4181752;28;20469;-82
2022/04/19 01:58:09;;;;;;;3.57;2.03;;;7.00;83.40;;;;;;4181730;28;20466;-82
2022/04/19 02:00:13;;;;;;;3.47;2.10;;;6.90;83.90;;;;;;4178687;28;20980;-82
2022/04/19 02:02:14;;;;;;;3.97;2.10;;;6.90;83.80;;;;;;4188276;28;20550;-82
2022/04/19 02:04:17;;;;;;;3.13;1.80;;;6.90;84.10;;;;;;4193388;28;20465;-81
2022/04/19 02:06:19;;;;;;;2.70;1.70;;;6.90;84.40;;;;;;4207894;28;20459;-82
2022/04/19 02:08:21;;;;;;;3.57;2.10;;;6.80;85.20;;;;;;4201334;28;20491;-81
2022/04/19 02:10:22;;;;;;;2.53;1.73;;;6.80;85.40;;;;;;4185248;28;20473;-81
2022/04/19 02:12:25;;;;;;;3.40;1.93;;;6.80;86.80;;;;;;4184599;28;20518;-80
2022/04/19 02:14:27;;;;;;;3.47;2.10;;;6.80;87.30;;;;;;4184311;28;21022;-81
2022/04/19 02:16:29;;;;;;;3.57;1.97;;;6.70;87.70;;;;;;4183495;28;20458;-82
2022/04/19 02:18:31;;;;;;;3.47;1.77;;;6.70;88.60;;;;;;4180182;28;20470;-82
2022/04/19 02:20:34;;;;;;;3.77;2.03;;;6.70;89.80;;;;;;4182689;28;20841;-82
2022/04/19 02:22:36;;;;;;;3.37;1.80;;;6.60;90.30;;;;;;4183886;28;20562;-82
2022/04/19 02:24:37;;;;;;;3.57;2.03;;;6.60;91.00;;;;;;4186234;28;20514;-82
2022/04/19 02:26:39;;;;;;;5.30;2.00;;;6.60;91.50;;;;;;4192475;28;20481;-81
2022/04/19 02:28:45;;;;;;;3.87;2.10;;;6.60;91.90;;;;;;4173663;28;20471;-81
2022/04/19 02:30:47;;;;;;;3.80;2.07;;;6.60;92.30;;;;;;4184412;28;21016;-81
2022/04/19 02:32:50;;;;;;;2.90;2.10;;;6.50;92.90;;;;;;4183368;28;20475;-81
2022/04/19 02:34:52;;;;;;;4.03;2.00;;;6.50;93.60;;;;;;4192252;28;20867;-82
2022/04/19 02:36:54;;;;;;;4.47;2.10;;;6.50;93.80;;;;;;4175862;28;20525;-82
2022/04/19 02:38:56;;;;;;;3.97;1.93;;;6.50;94.30;;;;;;4167111;28;20463;-82
2022/04/19 02:40:58;;;;;;;4.50;2.43;;;6.40;94.70;;;;;;4179294;28;20475;-80
2022/04/19 02:43:00;;;;;;;4.37;2.50;;;6.40;95.30;;;;;;4182193;28;20507;-82
2022/04/19 02:45:04;;;;;;;3.40;2.20;;;6.40;96.00;;;;;;4182478;28;20525;-82
2022/04/19 02:47:06;;;;;;;3.87;2.03;;;6.40;96.20;;;;;;4177398;28;20466;-81
2022/04/19 02:49:08;;;;;;;3.80;2.20;;;6.30;96.70;;;;;;4183548;28;20465;-81
2022/04/19 02:51:10;;;;;;;3.20;2.10;;;6.30;97.10;;;;;;4189662;28;20575;-81
2022/04/19 02:53:12;;;;;;;3.40;2.10;;;6.30;97.50;;;;;;4182458;28;20526;-82
2022/04/19 02:55:14;;;;;;;4.27;2.43;;;6.30;98.00;;;;;;4182637;28;20468;-81
2022/04/19 02:57:16;;;;;;;3.33;2.10;;;6.30;98.50;;;;;;4183341;28;20523;-82
2022/04/19 02:59:17;;;;;;;4.23;2.33;;;6.30;99.20;;;;;;4180754;28;20840;-80
2022/04/19 03:01:20;;;;;;;3.63;2.00;;;6.30;99.70;;;;;;4183440;28;20473;-82
2022/04/19 03:03:22;;;;;;;6.50;2.70;;;6.30;99.90;;;;;;4183317;28;20514;-81
2022/04/19 03:05:24;;;;;;;4.37;2.27;;;6.30;99.90;;;;;;4188307;28;20957;-81
2022/04/19 03:07:25;;;;;;;3.90;2.20;;;6.30;99.90;;;;;;4194014;28;20968;-80
2022/04/19 03:09:27;;;;;;;5.70;2.50;;;6.30;99.90;;;;;;4181513;28;21011;-81
2022/04/19 03:11:29;;;;;;;4.53;2.50;;;6.20;99.90;;;;;;4181595;28;20497;-82
2022/04/19 03:13:32;;;;;;;5.10;2.33;;;6.30;99.90;;;;;;4184330;28;20461;-81
2022/04/19 03:15:34;;;;;;;4.30;2.27;;;6.20;99.90;;;;;;4187819;28;20466;-81
2022/04/19 03:17:37;;;;;;;5.67;2.47;;;6.20;99.90;;;;;;4185916;28;20461;-81
2022/04/19 03:19:39;;;;;;;5.90;2.57;;;6.20;99.90;;;;;;4184694;28;20462;-80
2022/04/19 03:21:40;;;;;;;5.03;2.63;;;6.20;99.90;;;;;;4184139;28;20535;-82
2022/04/19 03:28:21;;;;;;;3.67;2.30;;;6.20;99.90;;;;;;4166315;28;20959;-82
2022/04/19 03:30:22;;;;;;;5.90;2.60;;;6.20;99.90;;;;;;4179783;28;20460;-81
2022/04/19 03:32:24;;;;;;;4.30;2.50;;;6.20;99.90;;;;;;4189987;28;20553;-82
2022/04/19 03:34:27;;;;;;;5.13;2.60;;;6.20;99.90;;;;;;4185259;28;20477;-81
2022/04/19 03:36:29;;;;;;;4.50;2.50;;;6.10;99.90;;;;;;4182448;28;20454;-81
2022/04/19 03:38:31;;;;;;;4.43;2.70;;;6.10;99.90;;;;;;4183953;28;20465;-80
2022/04/19 03:40:32;;;;;;;4.00;2.60;;;6.10;99.90;;;;;;4196344;28;20460;-82
2022/04/19 03:42:34;;;;;;;4.70;2.70;;;6.10;99.90;;;;;;4181990;28;20860;-81
2022/04/19 03:44:38;;;;;;;6.90;2.83;;;6.50;99.90;;;;;;4172623;28;20469;-82
2022/04/19 03:48:56;;;;;;;5.20;3.00;;;6.10;99.90;;;;;;4182060;28;20445;-81
2022/04/19 03:50:59;;;;;;;4.13;2.27;;;6.10;99.90;;;;;;4182176;28;20815;-81
2022/04/19 03:53:00;;;;;;;3.53;2.30;;;6.10;99.90;;;;;;4181274;28;20493;-81
2022/04/19 03:55:02;;;;;;;5.60;2.40;;;6.10;99.90;;;;;;4179114;28;20458;-82
2022/04/19 03:57:06;;;;;;;3.80;2.40;;;6.10;99.90;;;;;;4181544;28;20457;-81
2022/04/19 03:59:09;;;;;;;5.80;2.20;;;6.10;99.90;;;;;;4180020;28;20551;-80
2022/04/19 04:01:12;;;;;;;4.77;2.30;;;6.10;99.90;;;;;;4184014;28;20539;-80
2022/04/19 04:03:14;;;;;;;3.30;2.10;;;6.10;99.90;;;;;;4183925;28;20548;-80
2022/04/19 04:05:16;;;;;;;3.87;2.07;;;6.00;99.90;;;;;;4188846;28;20452;-80
2022/04/19 04:07:22;;;;;;;3.27;2.20;;;6.00;99.90;;;;;;4200093;28;20510;-80
2022/04/19 04:09:23;;;;;;;2.37;1.77;;;6.00;99.90;;;;;;4189339;28;20491;-80
2022/04/19 04:11:25;;;;;;;4.43;2.10;;;6.00;99.90;;;;;;4189951;28;21013;-81
2022/04/19 04:13:27;;;;;;;2.80;1.80;;;6.00;99.90;;;;;;4181766;28;20453;-81
2022/04/19 04:15:30;;;;;;;3.73;1.83;;;6.00;99.90;;;;;;4183683;28;20453;-81
2022/04/19 04:17:32;;;;;;;3.70;1.90;;;6.00;99.90;;;;;;4178263;28;20468;-82
2022/04/19 04:19:34;;;;;;;5.33;2.40;;;6.00;99.90;;;;;;4183064;28;20818;-80
2022/04/19 04:21:36;;;;;;;3.03;1.70;;;6.00;99.90;;;;;;4183437;28;20469;-81
2022/04/19 04:23:39;;;;;;;3.73;1.90;;;6.00;99.90;;;;;;4180256;28;20515;-80
2022/04/19 04:25:41;;;;;;;2.77;1.80;;;6.00;99.90;;;;;;4176501;28;20468;-79
2022/04/19 04:27:43;;;;;;;4.30;1.97;;;6.00;99.90;;;;;;4182065;28;20511;-81
2022/04/19 04:29:44;;;;;;;3.13;1.83;;;6.00;99.90;;;;;;4183697;28;20848;-81
2022/04/19 04:31:46;;;;;;;2.83;1.77;;;6.00;99.90;;;;;;4181628;28;20498;-79
2022/04/19 04:33:48;;;;;;;5.40;2.00;;;6.00;99.90;;;;;;4183512;28;20503;-80
2022/04/19 04:35:49;;;;;;;3.40;2.10;;;6.00;99.90;;;;;;4183395;28;20472;-81
2022/04/19 04:37:52;;;;;;;3.97;1.97;;;6.00;99.90;;;;;;4184161;28;20559;-80
2022/04/19 04:39:56;;;;;;;2.67;1.67;;;6.00;99.90;;;;;;4184426;28;20552;-81
2022/04/19 04:41:58;;;;;;;3.17;1.50;;;6.00;99.90;;;;;;4185086;28;20485;-81
2022/04/19 04:43:59;;;;;;;4.17;1.77;;;6.00;99.90;;;;;;4184810;28;20837;-80
2022/04/19 04:50:41;;;;;;;5.13;2.30;;;6.00;99.90;;;;;;4179795;28;20476;-81
2022/04/19 04:52:43;;;;;;;4.10;2.10;;;6.00;99.90;;;;;;4182434;28;20484;-80
2022/04/19 04:54:44;;;;;;;3.43;1.97;;;6.00;99.90;;;;;;4176991;28;20483;-81
2022/04/19 04:56:48;;;;;;;3.77;2.00;;;6.20;99.90;;;;;;4182411;28;20466;-81
2022/04/19 04:58:49;;;;;;;4.23;1.87;;;5.90;99.90;;;;;;4184848;28;20471;-80
2022/04/19 05:00:51;;;;;;;3.70;2.13;;;5.90;99.90;;;;;;4181408;28;20480;-81
2022/04/19 05:02:53;;;;;;;2.97;2.03;;;5.90;99.90;;;;;;4189107;28;20445;-82
2022/04/19 05:04:55;;;;;;;4.40;2.40;;;5.90;99.90;;;;;;4187957;28;20534;-82
2022/04/19 05:06:56;;;;;;;2.97;1.97;;;5.90;99.90;;;;;;4189987;28;20515;-80
2022/04/19 05:08:58;;;;;;;6.97;3.70;;;5.90;99.90;;;;;;4169356;28;20482;-80
2022/04/19 05:11:00;;;;;;;4.63;2.70;;;5.80;99.90;;;;;;4180648;28;20476;-80
2022/04/19 05:13:03;;;;;;;5.57;2.57;;;6.30;99.90;;;;;;4185548;28;20493;-80
2022/04/19 05:15:05;;;;;;;4.87;2.37;;;5.80;99.90;;;;;;4193797;28;20465;-80
2022/04/19 05:17:07;;;;;;;3.13;2.00;;;5.80;99.90;;;;;;4180847;28;20487;-80
2022/04/19 05:19:10;;;;;;;4.23;2.37;;;5.80;99.90;;;;;;4174708;28;20981;-80
2022/04/19 05:21:11;;;;;;;3.80;2.30;;;5.80;99.90;;;;;;4184274;28;20495;-80
2022/04/19 05:23:13;;;;;;;4.07;2.47;;;5.70;99.90;;;;;;4184004;28;20801;-80
2022/04/19 05:25:15;;;;;;;5.77;2.53;;;5.70;99.90;;;;;;4183304;28;20503;-80
2022/04/19 05:27:16;;;;;;;5.10;2.33;;;5.70;99.90;;;;;;4183713;28;20543;-80
2022/04/19 05:29:19;;;;;;;2.70;2.00;;;5.70;99.90;;;;;;4183399;28;20545;-80
2022/04/19 05:31:21;;;;;;;5.27;2.43;;;5.70;99.90;;;;;;4179673;28;20485;-80
2022/04/19 05:33:23;;;;;;;6.23;2.80;;;5.70;99.90;;;;;;4185525;28;20539;-80
2022/04/19 05:35:25;;;;;;;4.57;2.60;;;5.70;99.90;;;;;;4185084;28;20457;-80
2022/04/19 05:37:27;;;;;;;5.70;2.73;;;5.70;99.90;;;;;;4177317;28;20895;-80
2022/04/19 05:39:28;;;;;;;4.10;2.60;;;5.80;99.90;;;;;;4183972;28;20543;-80
2022/04/19 05:41:31;;;;;;;5.10;2.90;;;5.80;99.90;;;;;;4184554;28;20510;-79
2022/04/19 05:43:33;;;;;;;5.50;3.03;;;5.80;99.90;;;;;;4185034;28;20452;-80
2022/04/19 05:45:36;;;;;;;4.63;2.63;;;5.80;99.90;;;;;;4185761;28;20492;-80
2022/04/19 05:47:37;;;;;;;7.93;2.80;;;5.90;99.90;;;;;;4186459;28;20452;-80
2022/04/19 05:49:39;;;;;;;6.90;2.73;;;5.80;99.90;;;;;;4184038;28;20453;-82
2022/04/19 05:51:42;;;;;;;6.23;2.70;;;5.90;99.90;;;;;;4184362;28;20477;-79
2022/04/19 05:53:44;;;;;;;4.30;2.23;;;5.90;99.90;;;;;;4183520;28;20488;-80
2022/04/19 05:55:45;;;;;;;5.00;2.43;;;6.50;99.90;;;;;;4179779;28;20559;-78
2022/04/19 05:57:47;;;;;;;5.27;2.37;;;5.90;99.90;;;;;;4179904;28;20467;-77
2022/04/19 05:59:49;;;;;;;5.03;2.57;;;6.00;99.90;;;;;;4175128;28;20484;-78
2022/04/19 06:06:31;;;;;;;5.10;2.73;;;6.00;99.90;;;;;;4176913;28;20452;-77
2022/04/19 06:08:32;;;;;;;4.30;2.40;;;6.00;99.90;;;;;;4174131;28;21022;-78
2022/04/19 06:10:34;;;;;;;4.50;2.70;;;6.00;99.90;;;;;;4180410;28;20468;-77
2022/04/19 06:12:36;;;;;;;4.77;2.37;;;6.00;99.90;;;;;;4174414;28;20550;-78
2022/04/19 06:14:38;;;;;;;6.63;2.53;;;6.10;99.90;;;;;;4169879;28;20472;-78
2022/04/19 06:16:39;;;;;;;4.93;2.30;;;6.00;99.90;;;;;;4169696;28;20456;-78
2022/04/19 06:18:42;;;;;;;4.90;2.50;;;6.00;99.90;;;;;;4172552;28;20473;-78
2022/04/19 06:20:44;;;;;;;6.97;2.03;;;6.10;99.90;;;;;;4181247;28;20845;-78
2022/04/19 06:22:46;;;;;;;17.43;4.83;;;6.00;99.90;;;;;;4178189;28;20445;-78
2022/04/19 06:24:48;;;;;;;7.50;3.63;;;6.00;99.90;;;;;;4174760;28;20457;-78
2022/04/19 06:26:49;;;;;;;16.50;4.60;;;6.10;99.90;;;;;;4180867;28;20794;-78
2022/04/19 06:28:51;;;;;;;16.47;4.77;;;6.00;99.90;;;;;;4178177;28;20457;-78
2022/04/19 06:30:53;;;;;;;13.60;4.80;;;6.00;99.90;;;;;;4175499;28;20982;-78
2022/04/19 06:32:54;;;;;;;14.03;4.63;;;6.00;99.90;;;;;;4170898;28;20941;-78
2022/04/19 06:34:57;;;;;;;10.33;3.10;;;6.10;99.90;;;;;;4174673;28;20469;-78
2022/04/19 06:36:59;;;;;;;4.70;2.60;;;6.10;99.90;;;;;;4182429;28;20464;-78
2022/04/19 06:39:01;;;;;;;4.27;2.33;;;6.10;99.90;;;;;;4193281;28;20468;-78
2022/04/19 06:41:03;;;;;;;4.33;2.80;;;6.10;99.90;;;;;;4171390;28;20498;-78
2022/04/19 06:43:05;;;;;;;5.23;2.47;;;6.10;99.90;;;;;;4174712;28;20469;-78
2022/04/19 06:45:07;;;;;;;2.90;2.20;;;6.10;99.90;;;;;;4186859;28;20467;-78
2022/04/19 06:47:11;;;;;;;6.23;2.50;;;6.10;99.90;;;;;;4184596;28;20462;-79
2022/04/19 06:49:12;;;;;;;5.50;2.80;;;6.10;99.90;;;;;;4190082;28;21157;-78
2022/04/19 06:51:16;;;;;;;5.77;2.30;;;6.10;99.90;;;;;;4160351;28;20470;-78
2022/04/19 06:53:18;;;;;;;6.07;2.33;;;6.20;99.90;;;;;;4167190;28;20559;-78
2022/04/19 06:55:20;;;;;;;4.47;2.20;;;6.20;99.90;;;;;;4179622;28;20699;-77
2022/04/19 06:57:22;;;;;;;4.23;2.80;;;6.20;99.90;;;;;;4175791;28;20509;-78
2022/04/19 06:59:25;;;;;;;5.23;2.43;;;6.20;99.90;;;;;;4164391;28;20651;-78
2022/04/19 07:01:27;;;;;;;4.60;2.83;;;6.20;99.90;;;;;;4177610;28;20493;-78
2022/04/19 07:03:29;;;;;;;4.83;2.43;;;6.30;99.90;;;;;;4170511;28;20461;-78
2022/04/19 07:05:30;;;;;;;4.27;2.50;;;6.30;99.90;;;;;;4175924;28;20900;-78
2022/04/19 07:07:33;;;;;;;4.40;2.30;;;6.30;99.90;;;;;;4173463;28;20476;-78
2022/04/19 07:09:36;;;;;;;5.13;2.40;;;6.30;99.90;;;;;;4172615;28;20517;-78
2022/04/19 07:11:38;;;;;;;4.57;2.37;;;6.40;99.90;;;;;;4174398;28;20492;-78
2022/04/19 07:13:40;;;;;;;3.77;2.57;;;6.40;99.90;;;;;;4175215;28;20535;-78
2022/04/19 07:15:41;;;;;;;4.33;2.50;;;6.80;99.90;;;;;;4164961;28;20886;-78
2022/04/19 07:17:46;;;;;;;6.57;3.00;;;7.00;99.90;;;;;;4161071;28;20460;-78
2022/04/19 07:26:47;;;;;;;3.10;2.13;;;6.60;99.90;;;;;;4177134;28;20477;-78
2022/04/19 07:28:49;;;;;;;6.63;2.40;;;6.70;99.90;;;;;;4179696;28;21047;-78
2022/04/19 07:30:51;;;;;;;4.80;2.40;;;6.70;99.90;;;;;;4179388;28;20457;-78
2022/04/19 07:32:53;;;;;;;5.77;2.63;;;6.70;99.90;;;;;;4177503;28;20519;-78
2022/04/19 07:34:56;;;;;;;5.43;2.33;;;6.80;99.90;;;;;;4178565;28;20499;-79
2022/04/19 07:36:58;;;;;;;3.77;2.10;;;6.80;99.90;;;;;;4178063;28;20458;-79
2022/04/19 07:39:00;;;;;;;7.90;2.83;;;6.80;99.90;;;;;;4174657;28;20469;-80
2022/04/19 07:41:04;;;;;;;5.90;2.47;;;6.90;99.90;;;;;;4179274;28;20493;-79
2022/04/19 07:43:06;;;;;;;5.60;2.80;;;6.90;99.90;;;;;;4175508;28;20481;-80
2022/04/19 07:45:09;;;;;;;4.60;2.73;;;7.00;99.90;;;;;;4181596;28;20976;-79
2022/04/19 07:47:13;;;;;;;5.37;2.70;;;7.00;99.90;;;;;;4173378;28;20470;-79
2022/04/19 07:49:15;;;;;;;6.40;2.40;;;7.10;99.90;;;;;;4173552;28;20468;-79
2022/04/19 07:51:17;;;;;;;6.37;3.00;;;7.10;99.90;;;;;;4174212;28;21054;-79
2022/04/19 07:53:18;;;;;;;8.10;2.70;;;7.20;99.90;;;;;;4177625;28;20629;-79
2022/04/19 07:55:20;;;;;;;7.53;2.80;;;7.20;99.90;;;;;;4182565;28;20966;-79
2022/04/19 07:57:23;;;;;;;5.73;3.00;;;7.20;99.80;;;;;;4169526;28;20464;-80
2022/04/19 07:59:25;;;;;;;4.90;2.70;;;7.30;99.80;;;;;;4173944;28;20478;-79
2022/04/19 08:01:26;;;;;;;4.60;2.40;;;7.30;98.30;;;;;;4173817;28;20530;-79
2022/04/19 08:03:28;;;;;;;5.23;3.13;;;7.40;97.70;;;;;;4178125;28;20935;-80
2022/04/19 08:05:30;;;;;;;5.67;3.03;;;7.40;97.10;;;;;;4177665;28;20475;-79
2022/04/19 08:07:32;;;;;;;5.67;3.10;;;7.90;96.20;;;;;;4173885;28;20983;-79
2022/04/19 08:09:34;;;;;;;4.77;2.87;;;7.60;96.20;;;;;;4177774;28;20517;-79
2022/04/19 08:11:35;;;;;;;6.70;2.60;;;7.60;95.80;;;;;;4177912;28;20483;-80
2022/04/19 08:13:41;;;;;;;6.17;2.80;;;7.60;95.20;;;;;;4181412;28;20541;-80
2022/04/19 08:15:43;;;;;;;6.83;3.27;;;7.70;95.00;;;;;;4183855;28;20465;-80
2022/04/19 08:17:45;;;;;;;6.57;3.20;;;7.70;94.80;;;;;;4179377;28;20490;-79
2022/04/19 08:19:47;;;;;;;8.60;3.63;;;7.80;93.80;;;;;;4179527;28;20969;-80
2022/04/19 08:21:48;;;;;;;9.20;3.23;;;7.90;92.70;;;;;;4176175;28;20501;-80
2022/04/19 08:23:50;;;;;;;4.97;3.07;;;7.90;92.20;;;;;;4183040;28;20456;-80
2022/04/19 08:25:52;;;;;;;6.50;3.17;;;8.00;90.90;;;;;;4180907;28;20535;-79
2022/04/19 08:27:54;;;;;;;5.20;3.10;;;8.00;86.10;;;;;;4183817;28;20456;-79
2022/04/19 08:29:57;;;;;;;5.53;2.87;;;8.10;83.00;;;;;;4177227;28;20456;-78
2022/04/19 08:31:58;;;;;;;6.97;3.33;;;8.10;81.60;;;;;;4177360;28;20496;-78
2022/04/19 08:34:00;;;;;;;7.23;3.20;;;8.20;81.10;;;;;;4183979;28;20492;-81
2022/04/19 08:36:02;;;;;;;6.37;2.60;;;8.20;77.50;;;;;;4187598;28;20454;-79
2022/04/19 08:38:03;;;;;;;6.47;2.93;;;8.30;75.40;;;;;;4191796;28;20455;-79
2022/04/19 08:40:08;;;;;;;6.03;3.27;;;8.30;74.00;;;;;;4176770;28;20472;-79
2022/04/19 08:42:10;;;;;;;5.53;3.17;;;8.40;71.20;;;;;;4173050;28;20545;-78
2022/04/19 08:44:14;;;;;;;8.87;3.17;;;8.40;70.10;;;;;;4174193;28;20604;-79
2022/04/19 08:46:19;;;;;;;5.80;2.80;;;8.60;69.10;;;;;;4169320;28;20461;-78
2022/04/19 08:48:25;;;;;;;6.43;2.90;;;8.60;68.10;;;;;;4171028;28;20473;-78
2022/04/19 08:50:29;;;;;;;5.17;2.77;;;8.60;66.80;;;;;;4172240;28;20550;-78
2022/04/19 08:52:33;;;;;;;7.27;3.07;;;8.70;64.60;;;;;;4169812;28;20495;-79
2022/04/19 08:59:14;;;;;;;6.60;2.93;;;8.80;59.90;;;;;;4160636;28;20457;-77
2022/04/19 09:01:17;;;;;;;7.60;3.07;;;8.90;59.60;;;;;;4174343;28;20590;-81
2022/04/19 09:03:20;;;;;;;7.83;2.97;;;8.90;58.90;;;;;;4174515;28;20483;-77
2022/04/19 09:05:23;;;;;;;7.00;3.17;;;9.00;59.20;;;;;;4180938;28;20527;-77
2022/04/19 09:07:37;;;;;;;8.70;3.03;;;9.10;59.20;;;;;;4171492;28;20595;-79
2022/04/19 09:09:38;;;;;;;5.83;3.30;;;9.10;58.10;;;;;;4167970;28;20449;-77
2022/04/19 09:11:40;;;;;;;5.73;2.50;;;9.20;57.70;;;;;;4168876;28;20607;-77
2022/04/19 09:13:42;;;;;;;5.67;3.30;;;9.30;57.70;;;;;;4169080;28;20493;-78
2022/04/19 09:15:47;;;;;;;8.50;3.70;;;9.30;57.20;;;;;;4171831;28;20210;-78
2022/04/19 09:17:50;;;;;;;6.33;3.37;;;9.40;57.00;;;;;;4167477;28;20304;-77
2022/04/19 09:19:53;;;;;;;8.57;3.07;;;9.50;56.50;;;;;;4174051;28;20812;-77
2022/04/19 09:21:54;;;;;;;9.37;3.93;;;9.60;55.90;;;;;;4172506;28;20242;-78
2022/04/19 09:23:56;;;;;;;6.60;3.23;;;9.60;55.10;;;;;;4174820;28;20954;-78
2022/04/19 09:25:59;;;;;;;8.37;3.97;;;9.70;54.20;;;;;;4174848;28;20464;-80
2022/04/19 09:28:02;;;;;;;6.83;3.37;;;9.80;54.30;;;;;;4174926;28;20218;-79
2022/04/19 09:30:20;;;;;;;10.30;4.47;;;9.90;54.00;;;;;;4165699;28;20676;-77
2022/04/19 09:32:21;;;;;;;8.23;3.60;;;9.90;53.80;;;;;;4173635;28;20229;-78
2022/04/19 09:34:28;;;;;;;9.43;3.83;;;10.00;53.00;;;;;;4178229;28;20242;-77
2022/04/19 09:36:30;;;;;;;8.37;3.30;;;10.10;52.50;;;;;;4170205;28;20242;-77
2022/04/19 09:38:36;;;;;;;7.17;3.70;;;10.20;52.60;;;;;;4175063;28;20410;-76
2022/04/19 09:40:39;;;;;;;6.03;3.50;;;10.20;51.60;;;;;;4174115;28;20214;-80
2022/04/19 09:42:41;;;;;;;8.47;3.67;;;10.30;51.80;;;;;;4172165;28;20234;-78
2022/04/19 09:44:44;;;;;;;6.57;3.20;;;10.40;52.10;;;;;;4173064;28;20207;-77
2022/04/19 09:47:02;;;;;;;5.67;3.20;;;10.40;52.20;;;;;;4174325;28;20211;-79
2022/04/19 09:49:04;;;;;;;9.77;3.77;;;10.40;51.80;;;;;;4173361;28;20276;-79
2022/04/19 09:51:09;;;;;;;9.17;4.00;;;10.60;51.60;;;;;;4175050;28;20616;-79
2022/04/19 09:53:11;;;;;;;7.87;4.00;;;10.60;51.30;;;;;;4169395;28;20206;-79
2022/04/19 09:55:13;;;;;;;8.07;4.03;;;10.70;50.00;;;;;;4174392;28;20274;-80
2022/04/19 09:57:15;;;;;;;7.87;3.90;;;10.80;49.80;;;;;;4178306;28;20860;-78
2022/04/19 09:59:20;;;;;;;9.43;4.03;;;10.90;49.10;;;;;;4172179;28;20215;-79
2022/04/19 10:08:24;;;;;;;9.97;4.57;;;11.20;48.40;;;;;;4178995;28;20207;-79
2022/04/19 10:10:27;;;;;;;11.13;4.97;;;11.30;47.70;;;;;;4170862;28;20219;-79
2022/04/19 10:12:30;;;;;;;9.13;3.97;;;11.30;46.70;;;;;;4174541;28;20603;-79
2022/04/19 10:14:32;;;;;;;9.00;4.03;;;11.40;46.40;;;;;;4175286;28;20226;-79
2022/04/19 10:16:35;;;;;;;9.03;4.23;;;11.50;46.60;;;;;;4172938;28;20688;-76
2022/04/19 10:18:36;;;;;;;7.10;3.47;;;11.60;46.40;;;;;;4171814;28;20246;-79
2022/04/19 10:20:54;;;;;;;7.33;3.73;;;11.60;46.80;;;;;;4178776;28;20213;-85
2022/04/19 10:23:01;;;;;;;11.80;3.90;;;11.70;46.30;;;;;;4177066;28;20748;-79
2022/04/19 10:25:13;;;;;;;7.47;3.70;;;11.80;45.70;;;;;;4171672;28;20733;-77
2022/04/19 10:27:15;;;;;;;7.97;3.50;;;11.90;45.40;;;;;;4170633;28;20733;-78
2022/04/19 10:29:21;;;;;;;5.50;3.43;;;12.00;45.40;;;;;;4176822;28;20224;-77
2022/04/19 10:31:28;;;;;;;5.53;3.30;;;12.10;45.30;;;;;;4167186;28;20229;-76
2022/04/19 10:34:03;;;;;;;5.83;2.97;;;12.20;45.10;;;;;;4170909;28;20212;-77
2022/04/19 10:36:13;;;;;;;5.00;3.10;;;12.30;45.20;;;;;;4144592;28;20227;-77
2022/04/19 10:38:22;;;;;;;6.37;2.97;;;12.40;44.80;;;;;;4188094;28;20217;-79
2022/04/19 10:40:53;;;;;;;5.80;2.97;;;12.50;44.30;;;;;;4178255;28;20224;-77
2022/04/19 10:43:13;;;;;;;4.97;2.87;;;12.50;43.30;;;;;;4177243;28;20224;-79
2022/04/19 10:45:25;;;;;;;6.00;3.03;;;12.60;42.10;;;;;;4178355;28;20649;-78
2022/04/19 10:47:28;;;;;;;7.00;3.00;;;12.70;41.90;;;;;;4187510;28;20680;-77
2022/04/19 10:49:30;;;;;;;4.90;2.90;;;12.80;41.60;;;;;;4187627;28;20210;-77
2022/04/19 10:51:31;;;;;;;6.60;2.97;;;12.80;41.90;;;;;;4184615;28;20555;-79
2022/04/19 10:53:34;;;;;;;4.53;2.80;;;13.00;42.30;;;;;;4182422;28;20217;-79
2022/04/19 10:55:38;;;;;;;5.40;2.90;;;13.00;41.70;;;;;;4185798;28;20697;-78
2022/04/19 11:00:00;;;;;;;5.97;2.93;;;13.50;41.40;;;;;;4174191;28;20221;-78
2022/04/19 11:02:22;;;;;;;5.37;3.10;;;13.40;41.10;;;;;;4177874;28;20247;-79
2022/04/19 11:04:36;;;;;;;5.13;3.03;;;14.10;41.30;;;;;;4178642;28;20213;-79
2022/04/19 11:06:40;;;;;;;7.53;2.90;;;13.60;41.30;;;;;;4175761;28;20306;-78
2022/04/19 11:08:42;;;;;;;7.03;2.70;;;13.80;41.30;;;;;;4179453;28;20214;-79
2022/04/19 11:10:45;;;;;;;5.53;3.00;;;13.90;41.00;;;;;;4177822;28;20214;-77
2022/04/19 11:13:05;;;;;;;4.60;2.47;;;14.10;41.00;;;;;;4177824;28;20222;-79
2022/04/19 11:15:16;;;;;;;5.97;2.70;;;14.30;40.80;;;;;;4172516;28;20238;-78
2022/04/19 11:17:29;;;;;;;4.03;2.53;;;14.50;40.60;;;;;;4179717;28;20256;-77
2022/04/19 11:19:34;;;;;;;4.50;2.60;;;14.70;40.30;;;;;;4174168;28;20293;-78
2022/04/19 11:21:54;;;;;;;4.53;2.87;;;14.80;39.80;;;;;;4176324;28;20249;-80
2022/04/19 11:23:56;;;;;;;6.97;2.80;;;15.10;39.00;;;;;;4171022;28;20222;-77
2022/04/19 11:26:02;;;;;;;4.83;2.70;;;15.30;39.20;;;;;;4173976;28;20246;-79
2022/04/19 11:28:24;;;;;;;4.17;2.47;;;15.50;38.70;;;;;;4173907;28;20623;-78
2022/04/19 11:30:27;;;;;;;5.67;2.60;;;15.90;38.40;;;;;;4175548;28;20615;-78